sensor_id;sensor_type;location;lat;lon;timestamp;P1;durP1;ratioP1;P2;durP2;ratioP2
37823;SDS011;23667;43.246;26.576;2022-07-23T00:02:23;15.70;;;1.95;;
37823;SDS011;23667;43.246;26.576;2022-07-23T00:04:49;8.85;;;1.75;;
37823;SDS011;23667;43.246;26.576;2022-07-23T00:07:14;5.70;;;2.35;;
37823;SDS011;23667;43.246;26.576;2022-07-23T00:09:40;10.43;;;1.60;;
37823;SDS011;23667;43.246;26.576;2022-07-23T00:12:06;4.32;;;1.80;;
37823;SDS011;23667;43.246;26.576;2022-07-23T00:14:31;6.88;;;1.73;;
37823;SDS011;23667;43.246;26.576;2022-07-23T00:16:57;9.55;;;1.83;;
37823;SDS011;23667;43.246;26.576;2022-07-23T00:19:22;13.35;;;1.83;;
37823;SDS011;23667;43.246;26.576;2022-07-23T00:21:48;5.18;;;1.30;;
37823;SDS011;23667;43.246;26.576;2022-07-23T00:24:13;10.15;;;2.20;;
37823;SDS011;23667;43.246;26.576;2022-07-23T00:26:39;8.50;;;1.63;;
37823;SDS011;23667;43.246;26.576;2022-07-23T00:29:04;3.15;;;1.30;;
37823;SDS011;23667;43.246;26.576;2022-07-23T00:31:30;10.10;;;1.65;;
37823;SDS011;23667;43.246;26.576;2022-07-23T00:33:55;5.72;;;1.55;;
37823;SDS011;23667;43.246;26.576;2022-07-23T00:36:22;7.93;;;1.50;;
37823;SDS011;23667;43.246;26.576;2022-07-23T00:38:48;13.18;;;2.10;;
37823;SDS011;23667;43.246;26.576;2022-07-23T00:41:14;5.13;;;1.38;;
37823;SDS011;23667;43.246;26.576;2022-07-23T00:43:40;4.28;;;2.03;;
37823;SDS011;23667;43.246;26.576;2022-07-23T00:46:07;3.05;;;1.60;;
37823;SDS011;23667;43.246;26.576;2022-07-23T00:48:32;5.97;;;1.50;;
37823;SDS011;23667;43.246;26.576;2022-07-23T00:50:58;4.38;;;1.50;;
37823;SDS011;23667;43.246;26.576;2022-07-23T00:53:24;4.60;;;1.15;;
37823;SDS011;23667;43.246;26.576;2022-07-23T00:55:50;4.20;;;1.25;;
37823;SDS011;23667;43.246;26.576;2022-07-23T00:58:16;17.48;;;1.95;;
37823;SDS011;23667;43.246;26.576;2022-07-23T01:00:42;6.28;;;1.35;;
37823;SDS011;23667;43.246;26.576;2022-07-23T01:03:07;5.70;;;1.30;;
37823;SDS011;23667;43.246;26.576;2022-07-23T01:05:33;5.18;;;1.48;;
37823;SDS011;23667;43.246;26.576;2022-07-23T01:07:59;6.10;;;1.45;;
37823;SDS011;23667;43.246;26.576;2022-07-23T01:10:25;6.68;;;1.98;;
37823;SDS011;23667;43.246;26.576;2022-07-23T01:13:00;4.07;;;1.52;;
37823;SDS011;23667;43.246;26.576;2022-07-23T01:15:28;6.47;;;1.75;;
37823;SDS011;23667;43.246;26.576;2022-07-23T01:17:54;5.65;;;1.45;;
37823;SDS011;23667;43.246;26.576;2022-07-23T01:20:20;9.30;;;1.50;;
37823;SDS011;23667;43.246;26.576;2022-07-23T01:22:46;3.55;;;1.70;;
37823;SDS011;23667;43.246;26.576;2022-07-23T01:25:12;5.35;;;1.73;;
37823;SDS011;23667;43.246;26.576;2022-07-23T01:27:37;8.10;;;1.90;;
37823;SDS011;23667;43.246;26.576;2022-07-23T01:30:03;5.03;;;1.80;;
37823;SDS011;23667;43.246;26.576;2022-07-23T01:32:29;11.05;;;1.90;;
37823;SDS011;23667;43.246;26.576;2022-07-23T01:34:55;5.32;;;2.00;;
37823;SDS011;23667;43.246;26.576;2022-07-23T01:37:21;7.82;;;1.88;;
37823;SDS011;23667;43.246;26.576;2022-07-23T01:39:46;4.50;;;1.70;;
37823;SDS011;23667;43.246;26.576;2022-07-23T01:42:12;6.05;;;1.67;;
37823;SDS011;23667;43.246;26.576;2022-07-23T01:44:38;4.32;;;1.50;;
37823;SDS011;23667;43.246;26.576;2022-07-23T01:47:03;9.80;;;2.13;;
37823;SDS011;23667;43.246;26.576;2022-07-23T01:49:29;9.00;;;1.92;;
37823;SDS011;23667;43.246;26.576;2022-07-23T01:51:54;7.63;;;2.15;;
37823;SDS011;23667;43.246;26.576;2022-07-23T01:54:29;11.60;;;1.60;;
37823;SDS011;23667;43.246;26.576;2022-07-23T01:56:56;8.30;;;2.10;;
37823;SDS011;23667;43.246;26.576;2022-07-23T01:59:22;11.95;;;2.05;;
37823;SDS011;23667;43.246;26.576;2022-07-23T02:01:48;4.00;;;1.60;;
37823;SDS011;23667;43.246;26.576;2022-07-23T02:04:16;9.73;;;1.80;;
37823;SDS011;23667;43.246;26.576;2022-07-23T02:06:42;6.82;;;2.17;;
37823;SDS011;23667;43.246;26.576;2022-07-23T02:09:07;8.40;;;1.75;;
37823;SDS011;23667;43.246;26.576;2022-07-23T02:11:33;6.65;;;1.90;;
37823;SDS011;23667;43.246;26.576;2022-07-23T02:13:58;5.38;;;1.70;;
37823;SDS011;23667;43.246;26.576;2022-07-23T02:16:24;9.80;;;2.35;;
37823;SDS011;23667;43.246;26.576;2022-07-23T02:18:49;12.77;;;1.83;;
37823;SDS011;23667;43.246;26.576;2022-07-23T02:21:15;10.40;;;2.25;;
37823;SDS011;23667;43.246;26.576;2022-07-23T02:23:40;5.32;;;1.80;;
37823;SDS011;23667;43.246;26.576;2022-07-23T02:26:06;10.55;;;1.95;;
37823;SDS011;23667;43.246;26.576;2022-07-23T02:28:32;9.52;;;1.80;;
37823;SDS011;23667;43.246;26.576;2022-07-23T02:30:57;5.22;;;1.70;;
37823;SDS011;23667;43.246;26.576;2022-07-23T02:33:23;6.22;;;1.85;;
37823;SDS011;23667;43.246;26.576;2022-07-23T02:35:48;9.65;;;2.15;;
37823;SDS011;23667;43.246;26.576;2022-07-23T02:38:14;4.25;;;1.75;;
37823;SDS011;23667;43.246;26.576;2022-07-23T02:40:39;7.90;;;1.73;;
37823;SDS011;23667;43.246;26.576;2022-07-23T02:43:05;21.13;;;1.77;;
37823;SDS011;23667;43.246;26.576;2022-07-23T02:45:30;11.00;;;2.15;;
37823;SDS011;23667;43.246;26.576;2022-07-23T02:47:56;7.85;;;2.10;;
37823;SDS011;23667;43.246;26.576;2022-07-23T02:50:22;5.90;;;2.15;;
37823;SDS011;23667;43.246;26.576;2022-07-23T02:52:47;12.93;;;2.40;;
37823;SDS011;23667;43.246;26.576;2022-07-23T02:55:13;4.45;;;1.90;;
37823;SDS011;23667;43.246;26.576;2022-07-23T02:57:39;33.58;;;3.67;;
37823;SDS011;23667;43.246;26.576;2022-07-23T03:00:05;14.25;;;2.80;;
37823;SDS011;23667;43.246;26.576;2022-07-23T03:02:32;9.95;;;1.98;;
37823;SDS011;23667;43.246;26.576;2022-07-23T03:04:57;7.32;;;2.00;;
37823;SDS011;23667;43.246;26.576;2022-07-23T03:07:23;12.25;;;1.75;;
37823;SDS011;23667;43.246;26.576;2022-07-23T03:09:49;17.38;;;2.08;;
37823;SDS011;23667;43.246;26.576;2022-07-23T03:12:14;4.47;;;1.65;;
37823;SDS011;23667;43.246;26.576;2022-07-23T03:14:40;5.10;;;1.60;;
37823;SDS011;23667;43.246;26.576;2022-07-23T03:17:06;4.70;;;2.22;;
37823;SDS011;23667;43.246;26.576;2022-07-23T03:19:32;3.03;;;1.42;;
37823;SDS011;23667;43.246;26.576;2022-07-23T03:21:58;17.08;;;1.85;;
37823;SDS011;23667;43.246;26.576;2022-07-23T03:24:23;7.22;;;2.05;;
37823;SDS011;23667;43.246;26.576;2022-07-23T03:27:09;2.83;;;1.48;;
37823;SDS011;23667;43.246;26.576;2022-07-23T03:29:34;6.95;;;1.75;;
37823;SDS011;23667;43.246;26.576;2022-07-23T03:32:02;7.32;;;1.50;;
37823;SDS011;23667;43.246;26.576;2022-07-23T03:34:28;9.43;;;1.95;;
37823;SDS011;23667;43.246;26.576;2022-07-23T03:36:53;8.88;;;1.92;;
37823;SDS011;23667;43.246;26.576;2022-07-23T03:39:19;8.35;;;1.95;;
37823;SDS011;23667;43.246;26.576;2022-07-23T03:41:44;10.20;;;2.30;;
37823;SDS011;23667;43.246;26.576;2022-07-23T03:44:10;11.45;;;2.00;;
37823;SDS011;23667;43.246;26.576;2022-07-23T03:46:35;12.60;;;2.33;;
37823;SDS011;23667;43.246;26.576;2022-07-23T03:49:01;12.45;;;2.58;;
37823;SDS011;23667;43.246;26.576;2022-07-23T03:51:26;7.80;;;2.05;;
37823;SDS011;23667;43.246;26.576;2022-07-23T03:53:52;11.55;;;2.15;;
37823;SDS011;23667;43.246;26.576;2022-07-23T03:56:17;7.65;;;1.95;;
37823;SDS011;23667;43.246;26.576;2022-07-23T03:58:43;6.65;;;2.28;;
37823;SDS011;23667;43.246;26.576;2022-07-23T04:01:08;19.77;;;2.20;;
37823;SDS011;23667;43.246;26.576;2022-07-23T04:03:34;16.10;;;2.67;;
37823;SDS011;23667;43.246;26.576;2022-07-23T04:05:59;15.77;;;2.47;;
37823;SDS011;23667;43.246;26.576;2022-07-23T04:08:25;17.25;;;1.90;;
37823;SDS011;23667;43.246;26.576;2022-07-23T04:10:50;12.40;;;2.22;;
37823;SDS011;23667;43.246;26.576;2022-07-23T04:13:16;13.07;;;2.53;;
37823;SDS011;23667;43.246;26.576;2022-07-23T04:15:42;8.68;;;2.58;;
37823;SDS011;23667;43.246;26.576;2022-07-23T04:18:07;14.90;;;2.63;;
37823;SDS011;23667;43.246;26.576;2022-07-23T04:20:33;7.47;;;2.15;;
37823;SDS011;23667;43.246;26.576;2022-07-23T04:22:58;7.60;;;2.85;;
37823;SDS011;23667;43.246;26.576;2022-07-23T04:25:24;5.30;;;1.98;;
37823;SDS011;23667;43.246;26.576;2022-07-23T04:27:49;18.08;;;2.75;;
37823;SDS011;23667;43.246;26.576;2022-07-23T04:30:15;16.70;;;2.42;;
37823;SDS011;23667;43.246;26.576;2022-07-23T04:32:41;17.65;;;2.95;;
37823;SDS011;23667;43.246;26.576;2022-07-23T04:35:06;12.68;;;2.65;;
37823;SDS011;23667;43.246;26.576;2022-07-23T04:37:32;19.10;;;2.90;;
37823;SDS011;23667;43.246;26.576;2022-07-23T04:39:58;7.38;;;2.42;;
37823;SDS011;23667;43.246;26.576;2022-07-23T04:42:23;10.02;;;2.58;;
37823;SDS011;23667;43.246;26.576;2022-07-23T04:44:49;7.40;;;2.60;;
37823;SDS011;23667;43.246;26.576;2022-07-23T04:47:14;7.53;;;2.55;;
37823;SDS011;23667;43.246;26.576;2022-07-23T04:49:40;9.25;;;3.10;;
37823;SDS011;23667;43.246;26.576;2022-07-23T04:52:05;21.85;;;3.10;;
37823;SDS011;23667;43.246;26.576;2022-07-23T04:54:31;6.60;;;2.70;;
37823;SDS011;23667;43.246;26.576;2022-07-23T04:56:56;11.90;;;2.70;;
37823;SDS011;23667;43.246;26.576;2022-07-23T04:59:22;11.05;;;2.38;;
37823;SDS011;23667;43.246;26.576;2022-07-23T05:01:47;12.38;;;2.72;;
37823;SDS011;23667;43.246;26.576;2022-07-23T05:04:12;8.00;;;2.38;;
37823;SDS011;23667;43.246;26.576;2022-07-23T05:06:38;12.27;;;3.00;;
37823;SDS011;23667;43.246;26.576;2022-07-23T05:09:03;8.23;;;2.45;;
37823;SDS011;23667;43.246;26.576;2022-07-23T05:11:29;9.57;;;2.70;;
37823;SDS011;23667;43.246;26.576;2022-07-23T05:13:54;20.65;;;3.00;;
37823;SDS011;23667;43.246;26.576;2022-07-23T05:16:20;11.07;;;2.97;;
37823;SDS011;23667;43.246;26.576;2022-07-23T05:18:48;9.07;;;1.95;;
37823;SDS011;23667;43.246;26.576;2022-07-23T05:21:13;5.72;;;2.58;;
37823;SDS011;23667;43.246;26.576;2022-07-23T05:23:39;7.38;;;2.60;;
37823;SDS011;23667;43.246;26.576;2022-07-23T05:26:04;15.35;;;2.88;;
37823;SDS011;23667;43.246;26.576;2022-07-23T05:28:30;12.85;;;2.75;;
37823;SDS011;23667;43.246;26.576;2022-07-23T05:30:55;8.85;;;2.40;;
37823;SDS011;23667;43.246;26.576;2022-07-23T05:33:21;12.80;;;2.65;;
37823;SDS011;23667;43.246;26.576;2022-07-23T05:35:46;14.25;;;2.60;;
37823;SDS011;23667;43.246;26.576;2022-07-23T05:38:12;14.75;;;3.03;;
37823;SDS011;23667;43.246;26.576;2022-07-23T05:40:37;13.02;;;2.60;;
37823;SDS011;23667;43.246;26.576;2022-07-23T05:43:03;14.85;;;2.75;;
37823;SDS011;23667;43.246;26.576;2022-07-23T05:45:28;12.18;;;3.03;;
37823;SDS011;23667;43.246;26.576;2022-07-23T05:47:54;18.25;;;2.88;;
37823;SDS011;23667;43.246;26.576;2022-07-23T05:50:19;14.07;;;2.60;;
37823;SDS011;23667;43.246;26.576;2022-07-23T05:52:45;18.38;;;2.42;;
37823;SDS011;23667;43.246;26.576;2022-07-23T05:55:12;13.95;;;3.35;;
37823;SDS011;23667;43.246;26.576;2022-07-23T05:57:38;13.68;;;2.88;;
37823;SDS011;23667;43.246;26.576;2022-07-23T06:00:05;15.82;;;2.90;;
37823;SDS011;23667;43.246;26.576;2022-07-23T06:02:32;16.02;;;3.42;;
37823;SDS011;23667;43.246;26.576;2022-07-23T06:04:57;10.07;;;2.80;;
37823;SDS011;23667;43.246;26.576;2022-07-23T06:07:23;13.88;;;3.13;;
37823;SDS011;23667;43.246;26.576;2022-07-23T06:09:48;18.42;;;4.55;;
37823;SDS011;23667;43.246;26.576;2022-07-23T06:12:14;15.25;;;4.00;;
37823;SDS011;23667;43.246;26.576;2022-07-23T06:14:40;25.90;;;4.70;;
37823;SDS011;23667;43.246;26.576;2022-07-23T06:17:06;20.70;;;4.28;;
37823;SDS011;23667;43.246;26.576;2022-07-23T06:19:32;11.48;;;3.35;;
37823;SDS011;23667;43.246;26.576;2022-07-23T06:21:57;22.55;;;3.40;;
37823;SDS011;23667;43.246;26.576;2022-07-23T06:24:23;16.65;;;4.32;;
37823;SDS011;23667;43.246;26.576;2022-07-23T06:26:48;14.15;;;3.00;;
37823;SDS011;23667;43.246;26.576;2022-07-23T06:29:14;21.92;;;2.85;;
37823;SDS011;23667;43.246;26.576;2022-07-23T06:31:39;22.50;;;2.50;;
37823;SDS011;23667;43.246;26.576;2022-07-23T06:34:05;7.22;;;1.95;;
37823;SDS011;23667;43.246;26.576;2022-07-23T06:36:30;8.00;;;1.60;;
37823;SDS011;23667;43.246;26.576;2022-07-23T06:38:56;9.77;;;1.70;;
37823;SDS011;23667;43.246;26.576;2022-07-23T06:41:21;14.18;;;1.73;;
37823;SDS011;23667;43.246;26.576;2022-07-23T06:43:47;10.95;;;2.42;;
37823;SDS011;23667;43.246;26.576;2022-07-23T06:46:13;14.15;;;2.42;;
37823;SDS011;23667;43.246;26.576;2022-07-23T06:48:39;8.48;;;2.35;;
37823;SDS011;23667;43.246;26.576;2022-07-23T06:51:04;19.08;;;2.10;;
37823;SDS011;23667;43.246;26.576;2022-07-23T06:53:30;14.10;;;1.95;;
37823;SDS011;23667;43.246;26.576;2022-07-23T06:55:57;10.32;;;2.50;;
37823;SDS011;23667;43.246;26.576;2022-07-23T06:58:23;8.50;;;2.17;;
37823;SDS011;23667;43.246;26.576;2022-07-23T07:00:48;12.02;;;1.92;;
37823;SDS011;23667;43.246;26.576;2022-07-23T07:03:14;12.27;;;2.50;;
37823;SDS011;23667;43.246;26.576;2022-07-23T07:05:42;13.02;;;3.58;;
37823;SDS011;23667;43.246;26.576;2022-07-23T07:08:07;22.15;;;3.22;;
37823;SDS011;23667;43.246;26.576;2022-07-23T07:10:33;15.07;;;3.17;;
37823;SDS011;23667;43.246;26.576;2022-07-23T07:12:58;18.08;;;2.97;;
37823;SDS011;23667;43.246;26.576;2022-07-23T07:15:24;13.70;;;2.90;;
37823;SDS011;23667;43.246;26.576;2022-07-23T07:17:49;16.98;;;3.25;;
37823;SDS011;23667;43.246;26.576;2022-07-23T07:20:15;9.82;;;2.58;;
37823;SDS011;23667;43.246;26.576;2022-07-23T07:22:40;9.45;;;2.75;;
37823;SDS011;23667;43.246;26.576;2022-07-23T07:25:06;11.73;;;2.50;;
37823;SDS011;23667;43.246;26.576;2022-07-23T07:27:32;14.00;;;2.38;;
37823;SDS011;23667;43.246;26.576;2022-07-23T07:29:58;10.98;;;2.42;;
37823;SDS011;23667;43.246;26.576;2022-07-23T07:32:24;9.77;;;2.40;;
37823;SDS011;23667;43.246;26.576;2022-07-23T07:34:50;12.10;;;2.35;;
37823;SDS011;23667;43.246;26.576;2022-07-23T07:37:16;19.50;;;1.80;;
37823;SDS011;23667;43.246;26.576;2022-07-23T07:39:41;10.75;;;2.30;;
37823;SDS011;23667;43.246;26.576;2022-07-23T07:42:06;12.15;;;2.53;;
37823;SDS011;23667;43.246;26.576;2022-07-23T07:44:32;13.60;;;1.95;;
37823;SDS011;23667;43.246;26.576;2022-07-23T07:46:57;10.95;;;2.08;;
37823;SDS011;23667;43.246;26.576;2022-07-23T07:49:23;10.00;;;1.80;;
37823;SDS011;23667;43.246;26.576;2022-07-23T07:51:49;10.55;;;1.83;;
37823;SDS011;23667;43.246;26.576;2022-07-23T07:54:14;10.30;;;1.33;;
37823;SDS011;23667;43.246;26.576;2022-07-23T07:56:40;11.88;;;2.03;;
37823;SDS011;23667;43.246;26.576;2022-07-23T07:59:06;10.00;;;1.90;;
37823;SDS011;23667;43.246;26.576;2022-07-23T08:01:31;6.70;;;1.50;;
37823;SDS011;23667;43.246;26.576;2022-07-23T08:03:57;5.60;;;1.15;;
37823;SDS011;23667;43.246;26.576;2022-07-23T08:06:23;4.47;;;1.23;;
37823;SDS011;23667;43.246;26.576;2022-07-23T08:08:49;6.72;;;1.00;;
37823;SDS011;23667;43.246;26.576;2022-07-23T08:11:14;4.75;;;1.02;;
37823;SDS011;23667;43.246;26.576;2022-07-23T08:13:40;10.82;;;1.45;;
37823;SDS011;23667;43.246;26.576;2022-07-23T08:16:06;16.25;;;1.50;;
37823;SDS011;23667;43.246;26.576;2022-07-23T08:18:32;9.85;;;0.98;;
37823;SDS011;23667;43.246;26.576;2022-07-23T08:20:57;10.88;;;1.20;;
37823;SDS011;23667;43.246;26.576;2022-07-23T08:23:23;5.72;;;1.20;;
37823;SDS011;23667;43.246;26.576;2022-07-23T08:25:48;11.23;;;1.00;;
37823;SDS011;23667;43.246;26.576;2022-07-23T08:28:14;11.80;;;1.77;;
37823;SDS011;23667;43.246;26.576;2022-07-23T08:30:41;7.85;;;1.73;;
37823;SDS011;23667;43.246;26.576;2022-07-23T08:33:12;9.48;;;1.65;;
37823;SDS011;23667;43.246;26.576;2022-07-23T08:35:57;9.00;;;1.08;;
37823;SDS011;23667;43.246;26.576;2022-07-23T08:38:24;9.10;;;1.10;;
37823;SDS011;23667;43.246;26.576;2022-07-23T08:40:51;8.95;;;1.33;;
37823;SDS011;23667;43.246;26.576;2022-07-23T08:43:22;5.82;;;0.98;;
37823;SDS011;23667;43.246;26.576;2022-07-23T08:45:50;5.90;;;0.77;;
37823;SDS011;23667;43.246;26.576;2022-07-23T08:48:18;10.05;;;3.33;;
37823;SDS011;23667;43.246;26.576;2022-07-23T08:50:56;16.70;;;4.15;;
37823;SDS011;23667;43.246;26.576;2022-07-23T08:53:24;59.13;;;3.92;;
37823;SDS011;23667;43.246;26.576;2022-07-23T08:55:54;14.02;;;1.80;;
37823;SDS011;23667;43.246;26.576;2022-07-23T08:58:20;8.35;;;1.50;;
37823;SDS011;23667;43.246;26.576;2022-07-23T09:00:47;13.23;;;2.40;;
37823;SDS011;23667;43.246;26.576;2022-07-23T09:03:15;7.55;;;2.25;;
37823;SDS011;23667;43.246;26.576;2022-07-23T09:05:43;10.13;;;1.35;;
37823;SDS011;23667;43.246;26.576;2022-07-23T09:08:16;5.43;;;1.02;;
37823;SDS011;23667;43.246;26.576;2022-07-23T09:10:49;5.15;;;0.77;;
37823;SDS011;23667;43.246;26.576;2022-07-23T09:13:33;9.30;;;1.10;;
37823;SDS011;23667;43.246;26.576;2022-07-23T09:16:03;7.88;;;1.38;;
37823;SDS011;23667;43.246;26.576;2022-07-23T09:18:32;8.60;;;1.35;;
37823;SDS011;23667;43.246;26.576;2022-07-23T09:21:09;6.50;;;1.40;;
37823;SDS011;23667;43.246;26.576;2022-07-23T09:23:37;4.03;;;0.73;;
37823;SDS011;23667;43.246;26.576;2022-07-23T09:26:10;8.60;;;0.80;;
37823;SDS011;23667;43.246;26.576;2022-07-23T09:28:51;13.02;;;1.17;;
37823;SDS011;23667;43.246;26.576;2022-07-23T09:31:30;5.47;;;0.95;;
37823;SDS011;23667;43.246;26.576;2022-07-23T09:36:35;4.95;;;1.10;;
37823;SDS011;23667;43.246;26.576;2022-07-23T09:39:00;7.13;;;1.10;;
37823;SDS011;23667;43.246;26.576;2022-07-23T09:41:26;8.95;;;2.17;;
37823;SDS011;23667;43.246;26.576;2022-07-23T09:44:06;9.57;;;1.33;;
37823;SDS011;23667;43.246;26.576;2022-07-23T09:46:33;3.25;;;1.40;;
37823;SDS011;23667;43.246;26.576;2022-07-23T09:48:58;13.63;;;1.10;;
37823;SDS011;23667;43.246;26.576;2022-07-23T09:51:49;6.05;;;1.58;;
37823;SDS011;23667;43.246;26.576;2022-07-23T09:54:35;6.80;;;1.80;;
37823;SDS011;23667;43.246;26.576;2022-07-23T09:57:10;7.97;;;1.30;;
37823;SDS011;23667;43.246;26.576;2022-07-23T09:59:40;8.52;;;1.10;;
37823;SDS011;23667;43.246;26.576;2022-07-23T10:02:08;14.45;;;1.75;;
37823;SDS011;23667;43.246;26.576;2022-07-23T10:04:35;2.95;;;1.10;;
37823;SDS011;23667;43.246;26.576;2022-07-23T10:07:02;6.45;;;1.17;;
37823;SDS011;23667;43.246;26.576;2022-07-23T10:09:30;11.00;;;0.90;;
37823;SDS011;23667;43.246;26.576;2022-07-23T10:11:59;6.95;;;1.30;;
37823;SDS011;23667;43.246;26.576;2022-07-23T10:14:44;10.95;;;1.35;;
37823;SDS011;23667;43.246;26.576;2022-07-23T10:17:10;4.80;;;1.27;;
37823;SDS011;23667;43.246;26.576;2022-07-23T10:19:36;9.43;;;1.70;;
37823;SDS011;23667;43.246;26.576;2022-07-23T10:22:09;7.68;;;1.00;;
37823;SDS011;23667;43.246;26.576;2022-07-23T10:24:50;8.32;;;1.20;;
37823;SDS011;23667;43.246;26.576;2022-07-23T10:30:24;4.22;;;0.70;;
37823;SDS011;23667;43.246;26.576;2022-07-23T10:38:21;4.53;;;0.98;;
37823;SDS011;23667;43.246;26.576;2022-07-23T10:40:58;5.70;;;1.10;;
37823;SDS011;23667;43.246;26.576;2022-07-23T10:43:24;9.98;;;1.10;;
37823;SDS011;23667;43.246;26.576;2022-07-23T10:45:49;7.13;;;0.80;;
37823;SDS011;23667;43.246;26.576;2022-07-23T10:48:19;6.60;;;1.20;;
37823;SDS011;23667;43.246;26.576;2022-07-23T10:53:56;10.50;;;1.20;;
37823;SDS011;23667;43.246;26.576;2022-07-23T10:59:15;11.48;;;1.20;;
37823;SDS011;23667;43.246;26.576;2022-07-23T11:01:41;14.23;;;1.25;;
37823;SDS011;23667;43.246;26.576;2022-07-23T11:04:07;6.53;;;0.88;;
37823;SDS011;23667;43.246;26.576;2022-07-23T11:09:23;10.70;;;1.50;;
37823;SDS011;23667;43.246;26.576;2022-07-23T11:12:12;3.10;;;1.00;;
37823;SDS011;23667;43.246;26.576;2022-07-23T11:25:12;8.80;;;1.30;;
37823;SDS011;23667;43.246;26.576;2022-07-23T11:27:53;10.15;;;1.13;;
37823;SDS011;23667;43.246;26.576;2022-07-23T11:32:51;9.10;;;1.38;;
37823;SDS011;23667;43.246;26.576;2022-07-23T11:35:24;6.53;;;1.08;;
37823;SDS011;23667;43.246;26.576;2022-07-23T11:37:54;4.05;;;1.30;;
37823;SDS011;23667;43.246;26.576;2022-07-23T11:40:29;4.47;;;1.20;;
37823;SDS011;23667;43.246;26.576;2022-07-23T11:42:56;8.05;;;1.42;;
37823;SDS011;23667;43.246;26.576;2022-07-23T11:45:33;6.97;;;1.02;;
37823;SDS011;23667;43.246;26.576;2022-07-23T11:48:04;6.90;;;1.27;;
37823;SDS011;23667;43.246;26.576;2022-07-23T11:50:31;9.13;;;1.40;;
37823;SDS011;23667;43.246;26.576;2022-07-23T11:52:57;8.02;;;1.30;;
37823;SDS011;23667;43.246;26.576;2022-07-23T11:55:23;10.82;;;1.67;;
37823;SDS011;23667;43.246;26.576;2022-07-23T11:57:50;6.80;;;1.20;;
37823;SDS011;23667;43.246;26.576;2022-07-23T12:00:21;5.15;;;1.50;;
37823;SDS011;23667;43.246;26.576;2022-07-23T12:02:53;10.65;;;1.67;;
37823;SDS011;23667;43.246;26.576;2022-07-23T12:05:31;7.15;;;1.38;;
37823;SDS011;23667;43.246;26.576;2022-07-23T12:07:58;4.80;;;1.63;;
37823;SDS011;23667;43.246;26.576;2022-07-23T12:10:26;6.95;;;1.80;;
37823;SDS011;23667;43.246;26.576;2022-07-23T12:12:59;5.25;;;1.23;;
37823;SDS011;23667;43.246;26.576;2022-07-23T12:15:30;8.07;;;1.63;;
37823;SDS011;23667;43.246;26.576;2022-07-23T12:17:59;6.82;;;1.08;;
37823;SDS011;23667;43.246;26.576;2022-07-23T12:20:29;5.00;;;1.17;;
37823;SDS011;23667;43.246;26.576;2022-07-23T12:22:58;5.50;;;1.30;;
37823;SDS011;23667;43.246;26.576;2022-07-23T12:25:29;4.53;;;1.27;;
37823;SDS011;23667;43.246;26.576;2022-07-23T12:28:00;11.32;;;1.40;;
37823;SDS011;23667;43.246;26.576;2022-07-23T12:30:37;11.35;;;1.65;;
37823;SDS011;23667;43.246;26.576;2022-07-23T12:33:06;4.65;;;1.20;;
37823;SDS011;23667;43.246;26.576;2022-07-23T12:35:34;8.10;;;1.40;;
37823;SDS011;23667;43.246;26.576;2022-07-23T12:38:03;7.88;;;1.50;;
37823;SDS011;23667;43.246;26.576;2022-07-23T12:40:32;4.38;;;1.40;;
37823;SDS011;23667;43.246;26.576;2022-07-23T12:48:19;6.50;;;1.60;;
37823;SDS011;23667;43.246;26.576;2022-07-23T12:53:22;12.05;;;1.70;;
37823;SDS011;23667;43.246;26.576;2022-07-23T12:55:50;11.65;;;1.73;;
37823;SDS011;23667;43.246;26.576;2022-07-23T12:58:24;10.68;;;1.55;;
37823;SDS011;23667;43.246;26.576;2022-07-23T13:01:00;10.25;;;1.13;;
37823;SDS011;23667;43.246;26.576;2022-07-23T13:05:57;7.28;;;1.75;;
37823;SDS011;23667;43.246;26.576;2022-07-23T13:08:23;10.40;;;1.50;;
37823;SDS011;23667;43.246;26.576;2022-07-23T13:10:49;13.98;;;1.60;;
37823;SDS011;23667;43.246;26.576;2022-07-23T13:13:17;9.65;;;1.70;;
37823;SDS011;23667;43.246;26.576;2022-07-23T13:15:45;3.05;;;1.30;;
37823;SDS011;23667;43.246;26.576;2022-07-23T13:18:11;6.88;;;1.20;;
37823;SDS011;23667;43.246;26.576;2022-07-23T13:20:37;6.53;;;1.45;;
37823;SDS011;23667;43.246;26.576;2022-07-23T13:23:06;11.80;;;1.60;;
37823;SDS011;23667;43.246;26.576;2022-07-23T13:25:32;8.18;;;1.50;;
37823;SDS011;23667;43.246;26.576;2022-07-23T13:27:58;12.52;;;1.63;;
37823;SDS011;23667;43.246;26.576;2022-07-23T13:30:24;4.68;;;1.88;;
37823;SDS011;23667;43.246;26.576;2022-07-23T13:32:50;9.18;;;1.33;;
37823;SDS011;23667;43.246;26.576;2022-07-23T13:35:15;7.53;;;1.88;;
37823;SDS011;23667;43.246;26.576;2022-07-23T13:37:41;15.18;;;1.50;;
37823;SDS011;23667;43.246;26.576;2022-07-23T13:40:06;8.55;;;1.45;;
37823;SDS011;23667;43.246;26.576;2022-07-23T13:42:33;16.42;;;1.30;;
37823;SDS011;23667;43.246;26.576;2022-07-23T13:44:58;11.50;;;1.60;;
37823;SDS011;23667;43.246;26.576;2022-07-23T13:47:24;8.23;;;1.63;;
37823;SDS011;23667;43.246;26.576;2022-07-23T13:49:50;7.97;;;1.30;;
37823;SDS011;23667;43.246;26.576;2022-07-23T13:52:16;3.97;;;1.45;;
37823;SDS011;23667;43.246;26.576;2022-07-23T13:54:41;11.05;;;1.25;;
37823;SDS011;23667;43.246;26.576;2022-07-23T13:57:07;5.07;;;1.75;;
37823;SDS011;23667;43.246;26.576;2022-07-23T13:59:34;8.07;;;1.45;;
37823;SDS011;23667;43.246;26.576;2022-07-23T14:02:01;10.82;;;1.55;;
37823;SDS011;23667;43.246;26.576;2022-07-23T14:04:27;10.88;;;1.70;;
37823;SDS011;23667;43.246;26.576;2022-07-23T14:06:53;6.93;;;1.58;;
37823;SDS011;23667;43.246;26.576;2022-07-23T14:09:18;9.20;;;1.80;;
37823;SDS011;23667;43.246;26.576;2022-07-23T14:11:44;4.15;;;1.45;;
37823;SDS011;23667;43.246;26.576;2022-07-23T14:14:09;7.65;;;1.67;;
37823;SDS011;23667;43.246;26.576;2022-07-23T14:16:35;6.30;;;1.10;;
37823;SDS011;23667;43.246;26.576;2022-07-23T14:19:00;2.63;;;1.20;;
37823;SDS011;23667;43.246;26.576;2022-07-23T14:21:27;11.27;;;1.60;;
37823;SDS011;23667;43.246;26.576;2022-07-23T14:23:52;9.73;;;1.65;;
37823;SDS011;23667;43.246;26.576;2022-07-23T14:26:18;11.10;;;1.42;;
37823;SDS011;23667;43.246;26.576;2022-07-23T14:28:44;5.03;;;1.70;;
37823;SDS011;23667;43.246;26.576;2022-07-23T14:31:09;6.40;;;1.85;;
37823;SDS011;23667;43.246;26.576;2022-07-23T14:33:35;14.40;;;1.30;;
37823;SDS011;23667;43.246;26.576;2022-07-23T14:36:00;7.43;;;1.83;;
37823;SDS011;23667;43.246;26.576;2022-07-23T14:38:29;8.82;;;1.55;;
37823;SDS011;23667;43.246;26.576;2022-07-23T14:40:55;8.32;;;1.80;;
37823;SDS011;23667;43.246;26.576;2022-07-23T14:43:22;9.45;;;1.73;;
37823;SDS011;23667;43.246;26.576;2022-07-23T14:45:48;11.90;;;1.63;;
37823;SDS011;23667;43.246;26.576;2022-07-23T14:48:14;4.43;;;1.50;;
37823;SDS011;23667;43.246;26.576;2022-07-23T14:50:39;8.20;;;1.42;;
37823;SDS011;23667;43.246;26.576;2022-07-23T14:53:05;7.40;;;1.65;;
37823;SDS011;23667;43.246;26.576;2022-07-23T14:55:31;9.20;;;1.70;;
37823;SDS011;23667;43.246;26.576;2022-07-23T14:57:57;11.32;;;1.67;;
37823;SDS011;23667;43.246;26.576;2022-07-23T15:00:23;5.68;;;1.63;;
37823;SDS011;23667;43.246;26.576;2022-07-23T15:02:50;6.60;;;1.75;;
37823;SDS011;23667;43.246;26.576;2022-07-23T15:05:18;7.43;;;1.83;;
37823;SDS011;23667;43.246;26.576;2022-07-23T15:07:43;8.27;;;1.58;;
37823;SDS011;23667;43.246;26.576;2022-07-23T15:10:09;10.57;;;1.85;;
37823;SDS011;23667;43.246;26.576;2022-07-23T15:12:36;9.32;;;1.90;;